Time;durP1;ratioP1;P1;durP2;ratioP2;P2;SDS_P1;SDS_P2;PMS_P1;PMS_P2;Temp;Humidity;BMP_temperature;BMP_pressure;BME280_temperature;BME280_humidity;BME280_pressure;Samples;Min_cycle;Max_cycle;Signal;HPM_P1;HPM_P2
2022/06/25 00:00:55;;;;;;;15.02;7.40;;;;;;;19.31;82.03;94700.56;4935338;29;20261;-79
2022/06/25 00:03:21;;;;;;;20.77;12.38;;;;;;;19.41;81.46;94713.91;4935532;29;20163;-79
2022/06/25 00:05:46;;;;;;;14.77;8.00;;;;;;;19.37;81.86;94715.53;4935030;29;20179;-79
2022/06/25 00:08:12;;;;;;;14.63;7.80;;;;;;;19.22;82.33;94705.63;4935107;29;20179;-79
2022/06/25 00:10:37;;;;;;;25.08;9.75;;;;;;;19.18;82.45;94708.06;4934855;29;20182;-79
2022/06/25 00:13:03;;;;;;;19.00;10.38;;;;;;;19.15;82.69;94695.22;4927050;29;20480;-79
2022/06/25 00:15:28;;;;;;;16.25;8.65;;;;;;;19.16;82.65;94691.50;4935019;29;20167;-79
2022/06/25 00:17:53;;;;;;;14.60;9.50;;;;;;;19.06;82.68;94670.16;4934945;29;20186;-79
2022/06/25 00:20:19;;;;;;;16.42;7.03;;;;;;;19.15;82.91;94679.22;4935073;29;20179;-79
2022/06/25 00:22:45;;;;;;;13.35;7.68;;;;;;;19.13;83.03;94683.22;4935082;29;20253;-79
2022/06/25 00:25:10;;;;;;;14.93;6.88;;;;;;;19.14;83.25;94696.28;4934667;29;20633;-79
2022/06/25 00:27:36;;;;;;;10.35;7.30;;;;;;;19.07;82.90;94677.09;4934577;29;20182;-79
2022/06/25 00:30:03;;;;;;;10.40;5.53;;;;;;;19.20;81.93;94695.22;4934793;29;20189;-79
2022/06/25 00:32:29;;;;;;;12.80;5.63;;;;;;;19.14;81.82;94696.28;4934896;29;20234;-79
2022/06/25 00:34:54;;;;;;;9.75;6.43;;;;;;;19.13;82.56;94694.69;4935195;29;20203;-79
2022/06/25 00:37:19;;;;;;;9.48;6.28;;;;;;;19.12;82.79;94695.75;4935004;29;20215;-79
2022/06/25 00:39:45;;;;;;;12.82;5.53;;;;;;;19.06;82.97;94696.03;4935137;29;20187;-79
2022/06/25 00:42:13;;;;;;;9.13;5.43;;;;;;;19.06;82.95;94688.84;4935173;29;20186;-79
2022/06/25 00:44:40;;;;;;;7.68;5.88;;;;;;;18.98;83.28;94681.38;4935018;29;20224;-79
2022/06/25 00:47:09;;;;;;;13.27;6.82;;;;;;;19.01;83.09;94677.38;4935263;29;20652;-79
2022/06/25 00:49:35;;;;;;;12.57;5.90;;;;;;;18.98;83.28;94676.03;4934919;29;20190;-79
2022/06/25 00:52:07;;;;;;;14.50;6.03;;;;;;;18.98;83.19;94678.69;4935029;29;20174;-79
2022/06/25 00:54:37;;;;;;;15.45;8.93;;;;;;;18.96;82.93;94693.34;4935056;29;20175;-79
2022/06/25 00:57:05;;;;;;;19.25;12.88;;;;;;;18.89;83.56;94679.50;4934736;29;20303;-79
2022/06/25 00:59:39;;;;;;;29.20;17.10;;;;;;;18.87;83.10;94678.94;4934643;29;20190;-79
2022/06/25 01:02:05;;;;;;;27.52;12.95;;;;;;;18.85;83.03;94668.56;4934679;29;20197;-79
2022/06/25 01:04:30;;;;;;;27.60;11.70;;;;;;;18.80;82.13;94658.69;4934476;29;20179;-79
2022/06/25 01:06:56;;;;;;;15.80;10.38;;;;;;;18.95;82.58;94681.88;4934547;29;20177;-79
2022/06/25 01:09:21;;;;;;;19.88;10.27;;;;;;;18.96;82.90;94690.69;4938097;29;20647;-79
2022/06/25 01:11:47;;;;;;;11.88;7.15;;;;;;;18.89;82.56;94698.97;4938274;29;20266;-79
2022/06/25 01:14:13;;;;;;;17.27;7.18;;;;;;;18.87;82.74;94695.75;4938213;29;20195;-79
2022/06/25 01:16:38;;;;;;;14.75;6.68;;;;;;;18.89;82.73;94698.16;4938223;29;20633;-79
2022/06/25 01:19:08;;;;;;;14.80;6.47;;;;;;;18.85;82.57;94673.91;4938089;29;20195;-79
2022/06/25 01:21:35;;;;;;;12.27;6.07;;;;;;;18.87;83.07;94682.41;4937941;29;20202;-79
2022/06/25 01:24:02;;;;;;;11.93;6.68;;;;;;;18.80;83.27;94695.22;4938078;29;20258;-79
2022/06/25 01:26:27;;;;;;;17.23;6.90;;;;;;;18.83;83.47;94694.72;4938206;29;20187;-79
2022/06/25 01:28:53;;;;;;;14.10;7.18;;;;;;;18.87;83.00;94685.09;4937705;29;20206;-79
2022/06/25 01:31:18;;;;;;;15.38;8.60;;;;;;;18.82;83.32;94677.91;4937555;29;20182;-79
2022/06/25 01:33:44;;;;;;;18.52;8.88;;;;;;;18.82;83.40;94671.75;4937839;29;20676;-79
2022/06/25 01:36:09;;;;;;;19.33;9.52;;;;;;;18.79;83.64;94666.94;4937564;29;20711;-79
2022/06/25 01:38:35;;;;;;;12.55;7.95;;;;;;;18.92;82.17;94689.63;4937940;29;20190;-79
2022/06/25 01:41:00;;;;;;;21.40;12.20;;;;;;;18.89;82.50;94688.28;4937743;29;20737;-79
2022/06/25 01:43:25;;;;;;;13.30;5.50;;;;;;;18.89;82.81;94698.16;4937659;29;20171;-77
2022/06/25 01:45:51;;;;;;;12.50;7.65;;;;;;;18.85;82.59;94695.25;4938069;29;20197;-77
2022/06/25 01:48:17;;;;;;;10.30;7.28;;;;;;;18.87;82.98;94694.97;4937740;29;20183;-77
2022/06/25 01:50:43;;;;;;;17.67;8.63;;;;;;;18.93;82.87;94692.03;4937607;29;20184;-77
2022/06/25 01:53:09;;;;;;;14.35;6.93;;;;;;;18.93;82.08;94689.38;4937572;29;20198;-77
2022/06/25 01:55:35;;;;;;;10.98;6.32;;;;;;;18.92;82.08;94700.31;4937482;29;20804;-76
2022/06/25 01:58:01;;;;;;;9.60;5.80;;;;;;;18.87;82.14;94706.44;4937874;29;20214;-77
2022/06/25 02:00:29;;;;;;;15.70;6.05;;;;;;;18.79;82.68;94694.44;4937721;29;20182;-77
2022/06/25 02:02:55;;;;;;;8.18;5.80;;;;;;;18.70;82.66;94704.00;4937614;29;20178;-79
2022/06/25 02:08:09;;;;;;;6.50;4.72;;;;;;;18.63;83.02;94711.47;4937573;29;20933;-79
2022/06/25 02:10:35;;;;;;;7.20;5.18;;;;;;;18.61;83.30;94708.25;4918371;29;20195;-79
2022/06/25 02:13:00;;;;;;;6.15;4.38;;;;;;;18.70;83.06;94721.88;4930996;29;20202;-79
2022/06/25 02:15:26;;;;;;;7.18;4.80;;;;;;;18.67;83.33;94715.22;4937236;29;20260;-80
2022/06/25 02:17:51;;;;;;;8.43;4.80;;;;;;;18.66;83.23;94696.81;4937023;29;20266;-79
2022/06/25 02:20:17;;;;;;;7.13;4.68;;;;;;;18.63;83.61;94694.66;4936677;29;20653;-79
2022/06/25 02:22:43;;;;;;;9.73;5.43;;;;;;;18.60;83.52;94693.31;4937375;29;20656;-79
2022/06/25 02:25:08;;;;;;;8.82;5.30;;;;;;;18.56;83.69;94684.25;4936927;29;20210;-79
2022/06/25 02:27:35;;;;;;;34.50;8.20;;;;;;;18.81;83.65;94710.97;4936946;29;20284;-79
2022/06/25 02:30:01;;;;;;;13.90;9.00;;;;;;;18.80;82.38;94708.56;4936824;29;20187;-79
2022/06/25 02:32:30;;;;;;;27.75;16.13;;;;;;;18.83;82.97;94710.72;4936810;29;20215;-79
2022/06/25 02:34:55;;;;;;;12.40;6.75;;;;;;;18.87;82.76;94727.78;4936742;29;20187;-79
2022/06/25 02:37:21;;;;;;;7.82;5.55;;;;;;;18.92;83.10;94730.47;4936888;29;20189;-79
2022/06/25 02:39:46;;;;;;;11.55;7.60;;;;;;;18.94;83.61;94730.19;4936776;29;20678;-79
2022/06/25 02:42:12;;;;;;;11.52;7.35;;;;;;;18.98;83.44;94728.59;4936791;29;20581;-79
2022/06/25 02:44:37;;;;;;;11.13;5.65;;;;;;;19.03;82.53;94728.56;4937052;29;20183;-79
2022/06/25 02:47:03;;;;;;;9.35;5.57;;;;;;;18.83;82.94;94732.03;4936872;29;20174;-79
2022/06/25 02:49:28;;;;;;;25.92;14.50;;;;;;;18.83;83.58;94721.38;4937116;29;20179;-79
2022/06/25 02:51:53;;;;;;;17.33;10.65;;;;;;;18.79;83.78;94718.44;4937220;29;20186;-80
2022/06/25 02:54:19;;;;;;;14.38;7.00;;;;;;;18.75;83.46;94709.38;4936659;29;20206;-79
2022/06/25 02:59:28;;;;;;;13.45;7.28;;;;;;;18.83;83.53;94700.84;4936735;29;20222;-80
2022/06/25 03:01:55;;;;;;;9.25;5.75;;;;;;;18.69;83.59;94702.41;4936757;29;20186;-79
2022/06/25 03:04:24;;;;;;;8.07;6.20;;;;;;;18.27;84.24;94689.22;4936598;29;20179;-79
2022/06/25 03:06:50;;;;;;;15.63;8.02;;;;;;;18.40;85.27;94718.06;4936464;29;20179;-79
2022/06/25 03:09:15;;;;;;;13.20;6.57;;;;;;;18.53;85.64;94714.09;4936773;29;20254;-79
2022/06/25 03:11:41;;;;;;;21.05;12.38;;;;;;;18.57;86.23;94699.22;4936933;29;20672;-79
2022/06/25 03:14:07;;;;;;;20.85;10.43;;;;;;;18.89;85.38;94720.31;4936526;29;20206;-79
2022/06/25 03:16:32;;;;;;;8.07;6.72;;;;;;;18.96;85.01;94728.84;4936667;29;20175;-79
2022/06/25 03:18:58;;;;;;;17.27;5.28;;;;;;;19.01;85.09;94726.19;4936204;29;20175;-79
2022/06/25 03:21:24;;;;;;;17.80;7.65;;;;;;;19.06;85.07;94728.84;4918962;29;20189;-79
2022/06/25 03:23:49;;;;;;;10.95;5.93;;;;;;;19.14;84.47;94724.84;4936152;29;20187;-79
2022/06/25 03:26:15;;;;;;;11.55;6.35;;;;;;;18.80;83.34;94671.22;4936411;29;20285;-81
2022/06/25 03:28:40;;;;;;;10.20;5.78;;;;;;;19.07;83.73;94717.13;4936162;29;20194;-80
2022/06/25 03:31:06;;;;;;;13.60;6.30;;;;;;;19.19;84.23;94720.34;4935599;29;20168;-80
2022/06/25 03:33:31;;;;;;;9.98;6.75;;;;;;;19.23;84.20;94721.38;4936078;29;20193;-81
2022/06/25 03:35:57;;;;;;;10.48;5.85;;;;;;;19.32;83.52;94718.97;4935971;29;20167;-81
2022/06/25 03:38:22;;;;;;;8.00;5.63;;;;;;;19.34;83.22;94716.03;4936140;29;20171;-80
2022/06/25 03:40:48;;;;;;;10.75;6.63;;;;;;;19.41;82.31;94716.56;4935545;29;20661;-80
2022/06/25 03:43:13;;;;;;;8.88;6.00;;;;;;;19.45;82.15;94720.31;4935207;29;20167;-81
2022/06/25 03:45:39;;;;;;;11.93;6.18;;;;;;;19.53;83.15;94712.59;4935676;29;20266;-81
2022/06/25 03:48:05;;;;;;;8.27;5.13;;;;;;;19.65;82.07;94711.47;4936048;29;20171;-81
2022/06/25 03:50:30;;;;;;;8.43;5.60;;;;;;;19.34;82.23;94681.34;4935990;29;20652;-81
2022/06/25 03:52:56;;;;;;;11.80;5.35;;;;;;;19.54;82.91;94716.06;4935130;29;20238;-80
2022/06/25 03:55:21;;;;;;;9.82;5.90;;;;;;;19.59;82.68;94705.34;4935442;29;20215;-81
2022/06/25 03:57:47;;;;;;;9.63;5.10;;;;;;;19.57;81.78;94699.47;4918654;29;20194;-80
2022/06/25 04:00:14;;;;;;;8.48;4.97;;;;;;;19.27;81.46;94696.84;4935475;29;20234;-79
2022/06/25 04:02:40;;;;;;;7.53;5.47;;;;;;;19.17;82.17;94693.09;4935430;29;20177;-80
2022/06/25 04:05:06;;;;;;;11.88;5.70;;;;;;;19.33;83.28;94703.75;4935008;29;20250;-79
2022/06/25 04:07:32;;;;;;;14.85;5.60;;;;;;;19.43;83.16;94709.91;4935586;29;20607;-79
2022/06/25 04:09:57;;;;;;;8.23;5.45;;;;;;;19.51;83.19;94717.38;4935202;29;20206;-80
2022/06/25 04:12:24;;;;;;;12.23;5.20;;;;;;;19.47;83.43;94708.31;4935464;29;20264;-79
2022/06/25 04:14:49;;;;;;;9.15;5.13;;;;;;;19.44;83.97;94682.13;4935094;29;20211;-80
2022/06/25 04:17:14;;;;;;;11.30;5.15;;;;;;;19.75;83.96;94714.94;4935096;29;20198;-80
2022/06/25 04:19:40;;;;;;;7.45;5.57;;;;;;;19.86;82.83;94729.88;4935107;29;20596;-79
2022/06/25 04:22:10;;;;;;;10.02;5.93;;;;;;;19.76;81.86;94710.38;4934638;29;20179;-80
2022/06/25 04:24:37;;;;;;;7.03;4.90;;;;;;;19.94;82.63;94731.19;4934795;29;20175;-80
2022/06/25 04:27:03;;;;;;;6.95;5.00;;;;;;;19.88;82.46;94706.34;4935301;29;20670;-80
2022/06/25 04:29:30;;;;;;;9.35;6.03;;;;;;;20.09;82.55;94736.47;4935088;29;20199;-80
2022/06/25 04:31:55;;;;;;;9.98;6.15;;;;;;;20.07;81.83;94727.13;4934619;29;20183;-80
2022/06/25 04:34:21;;;;;;;14.02;7.05;;;;;;;19.74;81.46;94704.50;4934626;29;20203;-80
2022/06/25 04:36:47;;;;;;;13.25;7.13;;;;;;;19.86;82.58;94715.72;4934742;29;20190;-80
2022/06/25 04:39:13;;;;;;;12.43;6.85;;;;;;;20.01;81.90;94728.22;4935015;29;20178;-80
2022/06/25 04:41:38;;;;;;;13.20;7.10;;;;;;;20.18;82.49;94742.84;4935016;29;20269;-80
2022/06/25 04:44:04;;;;;;;16.10;7.35;;;;;;;20.29;81.75;94749.75;4934736;29;20171;-80
2022/06/25 04:46:29;;;;;;;13.65;6.28;;;;;;;20.31;81.76;94730.78;4935280;29;20171;-80
2022/06/25 04:48:58;;;;;;;15.52;6.70;;;;;;;20.46;81.34;94737.94;4935184;29;20573;-80
2022/06/25 04:51:26;;;;;;;12.73;6.75;;;;;;;20.58;80.59;94739.22;4934928;29;20186;-80
2022/06/25 04:53:57;;;;;;;15.80;6.75;;;;;;;20.74;80.72;94731.91;4935076;29;20262;-81
2022/06/25 04:56:25;;;;;;;8.40;6.07;;;;;;;21.03;79.83;94737.31;4934369;29;20226;-80
2022/06/25 04:58:51;;;;;;;10.48;6.32;;;;;;;21.20;77.83;94743.13;4935175;29;20167;-81
2022/06/25 05:01:16;;;;;;;14.48;5.68;;;;;;;21.33;76.20;94753.22;4917896;29;20527;-81
2022/06/25 05:03:42;;;;;;;9.80;5.22;;;;;;;21.31;76.12;94744.66;4934871;29;20248;-80
2022/06/25 05:06:08;;;;;;;8.55;5.68;;;;;;;21.27;76.27;94732.91;4935178;29;20175;-81
2022/06/25 05:08:34;;;;;;;10.05;5.90;;;;;;;21.50;76.48;94752.00;4934858;29;20274;-80
2022/06/25 05:11:00;;;;;;;9.80;5.63;;;;;;;21.51;73.56;94743.69;4935297;29;20253;-80
2022/06/25 05:13:25;;;;;;;8.88;5.68;;;;;;;21.48;73.59;94732.72;4935111;29;20187;-81
2022/06/25 05:15:52;;;;;;;10.65;5.95;;;;;;;21.83;75.33;94756.50;4934908;29;20214;-80
2022/06/25 05:18:18;;;;;;;17.00;6.70;;;;;;;22.04;72.81;94757.13;4935133;29;20194;-81
2022/06/25 05:20:44;;;;;;;9.93;5.53;;;;;;;22.28;70.88;94752.56;4934666;29;20179;-81
2022/06/25 05:23:10;;;;;;;9.18;5.70;;;;;;;22.46;70.56;94757.19;4935341;29;20265;-81
2022/06/25 05:25:36;;;;;;;6.85;5.53;;;;;;;22.73;72.33;94759.25;4934765;29;20254;-81
2022/06/25 05:28:02;;;;;;;11.75;5.78;;;;;;;22.93;68.98;94764.34;4934880;29;20175;-81
2022/06/25 05:30:28;;;;;;;8.95;5.65;;;;;;;22.92;70.40;94754.69;4934444;29;20179;-81
2022/06/25 05:32:53;;;;;;;14.27;8.63;;;;;;;22.93;71.05;94745.56;4934857;29;20409;-80
2022/06/25 05:35:19;;;;;;;11.00;5.85;;;;;;;22.91;69.69;94739.69;4934488;29;20282;-80
2022/06/25 05:37:44;;;;;;;16.40;7.25;;;;;;;22.93;70.85;94737.50;4934537;29;20183;-80
2022/06/25 05:40:10;;;;;;;16.92;6.85;;;;;;;23.25;69.94;94742.13;4934602;29;20275;-80
2022/06/25 05:42:36;;;;;;;21.52;5.50;;;;;;;23.50;69.31;94734.78;4934523;29;20696;-80
2022/06/25 05:45:02;;;;;;;11.38;7.78;;;;;;;23.83;68.02;94759.75;4934176;29;20259;-80
2022/06/25 05:47:28;;;;;;;14.85;7.38;;;;;;;24.09;66.75;94766.25;4934278;29;20186;-81
2022/06/25 05:49:53;;;;;;;16.73;9.07;;;;;;;24.23;65.59;94758.22;4934452;29;20186;-81
2022/06/25 05:52:19;;;;;;;12.63;9.07;;;;;;;24.48;64.34;94764.97;4934657;29;20227;-81
2022/06/25 05:54:44;;;;;;;9.90;4.95;;;;;;;24.48;65.48;94743.44;4934811;29;20210;-80
2022/06/25 05:57:09;;;;;;;11.55;6.07;;;;;;;24.78;62.07;94761.69;4937433;29;20270;-80
2022/06/25 05:59:35;;;;;;;15.05;7.38;;;;;;;25.06;63.10;94779.41;4937848;29;20191;-80
2022/06/25 06:02:00;;;;;;;7.55;5.97;;;;;;;25.26;63.41;94769.25;4937657;29;20190;-80
2022/06/25 06:04:26;;;;;;;10.05;4.93;;;;;;;25.55;60.99;94772.34;4937464;29;20657;-81
2022/06/25 06:06:52;;;;;;;8.52;5.38;;;;;;;25.44;62.54;94752.09;4938290;29;20233;-81
2022/06/25 06:09:17;;;;;;;12.13;6.28;;;;;;;25.71;60.10;94770.88;4938452;29;20270;-80
2022/06/25 06:11:43;;;;;;;8.52;5.45;;;;;;;25.71;59.65;94770.88;4939314;29;20346;-80
2022/06/25 06:14:08;;;;;;;8.70;5.07;;;;;;;25.58;59.67;94763.66;4939382;29;20631;-81
2022/06/25 06:16:34;;;;;;;9.88;6.13;;;;;;;25.51;59.89;94758.66;4939996;29;20726;-80
2022/06/25 06:19:00;;;;;;;8.40;5.47;;;;;;;25.75;59.29;94769.19;4938219;29;20183;-80
2022/06/25 06:21:25;;;;;;;8.23;5.90;;;;;;;26.05;60.57;94774.88;4937094;29;20179;-80
2022/06/25 06:23:51;;;;;;;8.95;6.00;;;;;;;26.20;58.33;94778.00;4937730;29;20189;-80
2022/06/25 06:26:16;;;;;;;10.40;5.22;;;;;;;26.09;57.16;94773.97;4937518;29;20633;-80
2022/06/25 06:28:43;;;;;;;6.97;4.35;;;;;;;26.15;55.54;94763.81;4937604;29;20210;-80
2022/06/25 06:31:08;;;;;;;5.90;5.22;;;;;;;26.32;57.41;94758.53;4937180;29;20186;-81
2022/06/25 06:33:34;;;;;;;6.60;4.35;;;;;;;26.54;56.29;94765.75;4936808;29;20226;-80
2022/06/25 06:35:59;;;;;;;7.60;5.18;;;;;;;26.65;55.66;94743.53;4936343;29;20179;-80
2022/06/25 06:38:24;;;;;;;6.05;5.00;;;;;;;26.64;54.19;94760.84;4936624;29;20645;-81
2022/06/25 06:40:50;;;;;;;9.05;4.47;;;;;;;26.77;55.69;94764.53;4936630;29;20179;-81
2022/06/25 06:43:15;;;;;;;6.47;4.72;;;;;;;26.96;55.09;94761.59;4936812;29;20175;-81
2022/06/25 06:45:41;;;;;;;9.88;4.63;;;;;;;27.01;55.18;94732.50;4936813;29;20183;-82
2022/06/25 06:48:06;;;;;;;6.13;4.47;;;;;;;27.41;55.29;94730.44;4936902;29;20179;-81
2022/06/25 06:50:31;;;;;;;7.05;4.90;;;;;;;27.79;54.18;94754.09;4928334;29;20237;-81
2022/06/25 06:52:57;;;;;;;9.75;4.78;;;;;;;28.14;53.64;94777.25;4936369;29;20195;-80
2022/06/25 06:55:22;;;;;;;18.77;6.78;;;;;;;28.24;51.80;94750.97;4936242;29;20191;-83
2022/06/25 06:57:48;;;;;;;8.18;3.70;;;;;;;28.11;50.98;94731.06;4934926;29;20647;-77
2022/06/25 07:00:13;;;;;;;6.18;4.30;;;;;;;28.28;51.02;94760.81;4935056;29;20662;-78
2022/06/25 07:02:39;;;;;;;5.10;4.07;;;;;;;28.54;50.13;94766.16;4934381;29;20194;-78
2022/06/25 07:05:05;;;;;;;7.85;4.22;;;;;;;28.37;52.83;94728.28;4931841;29;20194;-79
2022/06/25 07:07:30;;;;;;;10.18;5.10;;;;;;;28.79;51.19;94765.25;4932128;29;20191;-75
2022/06/25 07:09:56;;;;;;;7.68;5.03;;;;;;;28.87;51.85;94753.56;4935151;29;20186;-78
2022/06/25 07:12:21;;;;;;;6.65;4.65;;;;;;;29.00;52.51;94761.75;4934964;29;20175;-76
2022/06/25 07:14:47;;;;;;;10.55;4.65;;;;;;;28.90;53.09;94736.63;4929365;29;20211;-76
2022/06/25 07:17:13;;;;;;;11.88;4.38;;;;;;;29.28;52.37;94754.72;4933908;29;20226;-75
2022/06/25 07:19:38;;;;;;;8.25;4.53;;;;;;;29.43;51.43;94753.34;4929833;29;21580;-76
2022/06/25 07:22:04;;;;;;;8.35;4.75;;;;;;;29.44;50.86;94734.00;4923851;29;20187;-73
2022/06/25 07:24:29;;;;;;;12.07;6.07;;;;;;;29.37;47.32;94752.75;4927814;29;20186;-74
2022/06/25 07:26:55;;;;;;;14.18;4.97;;;;;;;29.16;47.99;94755.41;4932522;29;20191;-75
2022/06/25 07:29:20;;;;;;;8.50;4.68;;;;;;;28.86;50.17;94751.19;4930560;29;20185;-74
2022/06/25 07:31:46;;;;;;;13.40;5.70;;;;;;;28.18;49.76;94734.13;4933290;29;20721;-81
2022/06/25 07:34:12;;;;;;;8.02;5.40;;;;;;;28.04;50.54;94749.75;4934335;29;20205;-76
2022/06/25 07:36:37;;;;;;;7.57;5.53;;;;;;;28.13;51.72;94743.19;4933336;29;20189;-80
2022/06/25 07:39:03;;;;;;;8.48;4.80;;;;;;;28.54;50.72;94744.50;4934184;29;20183;-79
2022/06/25 07:41:30;;;;;;;7.45;5.22;;;;;;;28.70;49.96;94753.63;4933589;29;20215;-80
2022/06/25 07:43:55;;;;;;;7.45;4.95;;;;;;;29.06;50.45;94741.47;4932690;29;20692;-80
2022/06/25 07:46:21;;;;;;;7.07;4.32;;;;;;;29.42;49.72;94754.44;4933209;29;20228;-80
2022/06/25 07:48:47;;;;;;;6.82;4.15;;;;;;;29.64;50.51;94764.97;4931963;29;20989;-80
2022/06/25 07:52:13;;;;;;;8.18;4.65;;;;;;;29.87;49.39;94740.94;4933216;29;20182;-80
2022/06/25 07:54:07;;;;;;;7.25;5.35;;;;;;;30.18;47.70;94748.63;4915032;29;20226;-82
2022/06/25 07:56:32;;;;;;;7.95;5.07;;;;;;;29.99;46.32;94724.72;4933227;29;20258;-82
2022/06/25 07:58:59;;;;;;;6.13;4.72;;;;;;;30.25;48.17;94762.44;4916524;29;20593;-81
2022/06/25 08:01:25;;;;;;;11.30;5.15;;;;;;;30.33;46.97;94764.28;4930516;29;20191;-81
2022/06/25 08:03:50;;;;;;;8.45;4.95;;;;;;;30.62;49.63;94749.69;4923187;29;20186;-81
2022/06/25 08:06:16;;;;;;;9.90;4.93;;;;;;;30.74;49.53;94758.66;4919682;29;20214;-82
2022/06/25 08:08:41;;;;;;;10.88;5.13;;;;;;;30.81;47.75;94741.75;4925967;29;20189;-82
2022/06/25 08:11:07;;;;;;;7.85;4.40;;;;;;;30.82;45.42;94754.22;4929884;29;20580;-80
2022/06/25 08:13:33;;;;;;;6.65;5.00;;;;;;;30.58;47.18;94767.81;4917787;29;20214;-79
2022/06/25 08:15:59;;;;;;;7.80;4.53;;;;;;;30.62;46.47;94757.84;4933688;29;20782;-79
2022/06/25 08:18:25;;;;;;;7.38;4.80;;;;;;;30.55;45.79;94749.47;4932989;29;20193;-80
2022/06/25 08:20:50;;;;;;;10.77;5.10;;;;;;;30.49;46.38;94737.22;4933890;29;20191;-79
2022/06/25 08:23:16;;;;;;;9.00;4.70;;;;;;;30.48;47.28;94727.47;4934552;29;20183;-78
2022/06/25 08:25:42;;;;;;;6.53;4.47;;;;;;;30.24;49.28;94731.78;4934352;29;20743;-81
2022/06/25 08:28:08;;;;;;;11.85;4.97;;;;;;;30.26;47.77;94721.38;4932818;29;20195;-84
2022/06/25 08:30:34;;;;;;;11.82;4.85;;;;;;;30.06;46.90;94719.53;4934658;29;20193;-80
2022/06/25 08:33:00;;;;;;;10.68;4.80;;;;;;;30.31;46.47;94748.31;4934490;29;20286;-80
2022/06/25 08:35:26;;;;;;;6.28;4.40;;;;;;;30.31;45.40;94737.44;4933660;29;20174;-81
2022/06/25 08:37:51;;;;;;;7.50;4.63;;;;;;;30.21;48.64;94735.16;4932640;29;20185;-81
2022/06/25 08:40:19;;;;;;;10.18;4.68;;;;;;;30.00;46.89;94731.75;4931170;29;20187;-80
2022/06/25 08:42:47;;;;;;;11.63;5.03;;;;;;;30.04;48.09;94754.38;4930734;29;20668;-80
2022/06/25 08:45:13;;;;;;;10.13;4.68;;;;;;;30.00;46.66;94756.97;4930431;29;20194;-81
2022/06/25 08:47:46;;;;;;;6.53;4.45;;;;;;;29.71;47.00;94750.84;4930627;29;20186;-81
2022/06/25 08:50:17;;;;;;;5.93;4.57;;;;;;;29.77;50.35;94753.00;4931160;29;20186;-81
2022/06/25 08:52:53;;;;;;;8.60;5.40;;;;;;;29.66;53.38;94761.94;4931103;29;20187;-81
2022/06/25 08:55:28;;;;;;;5.75;4.63;;;;;;;29.93;47.95;94759.38;4931990;29;20217;-81
2022/06/25 08:57:54;;;;;;;7.47;4.78;;;;;;;29.98;47.95;94758.44;4932424;29;20254;-81
2022/06/25 09:00:20;;;;;;;16.60;5.50;;;;;;;30.03;48.48;94750.06;4932534;29;20242;-81
2022/06/25 09:02:46;;;;;;;6.45;5.07;;;;;;;29.95;50.53;94742.81;4932267;29;20179;-81
2022/06/25 09:05:11;;;;;;;7.93;4.35;;;;;;;30.15;49.25;94752.00;4932874;29;20187;-80
2022/06/25 09:07:37;;;;;;;12.93;6.28;;;;;;;30.46;49.35;94746.03;4915335;29;20266;-80
2022/06/25 09:10:03;;;;;;;8.23;4.97;;;;;;;30.86;48.43;94754.34;4932401;29;20167;-80
2022/06/25 09:12:28;;;;;;;9.40;5.40;;;;;;;30.78;48.06;94769.66;4932201;29;20194;-80
2022/06/25 09:14:54;;;;;;;9.68;5.75;;;;;;;30.72;47.56;94765.56;4932262;29;20626;-80
2022/06/25 09:17:19;;;;;;;10.10;7.25;;;;;;;30.74;50.18;94766.81;4932323;29;20207;-80
2022/06/25 09:19:50;;;;;;;15.07;6.10;;;;;;;30.80;50.85;94764.63;4932240;29;20215;-80
2022/06/25 09:22:22;;;;;;;13.73;6.03;;;;;;;30.76;46.84;94761.03;4932330;29;20209;-80
2022/06/25 09:24:57;;;;;;;11.82;5.90;;;;;;;30.71;50.03;94758.53;4930898;29;20175;-80
2022/06/25 09:27:37;;;;;;;12.30;6.10;;;;;;;30.86;48.29;94771.44;4930641;29;20233;-80
2022/06/25 09:30:10;;;;;;;9.65;5.45;;;;;;;30.41;46.87;94765.28;4934953;29;20664;-80
2022/06/25 09:32:45;;;;;;;8.40;5.75;;;;;;;30.27;49.77;94765.63;4919172;29;20198;-80
2022/06/25 09:35:12;;;;;;;8.13;5.25;;;;;;;30.21;49.75;94743.31;4936213;29;20178;-80
2022/06/25 09:37:39;;;;;;;11.55;7.35;;;;;;;30.36;51.15;94741.84;4938028;29;20589;-81
2022/06/25 09:40:05;;;;;;;12.18;5.80;;;;;;;29.54;48.88;94716.53;4938052;29;20176;-81
2022/06/25 09:42:32;;;;;;;14.85;6.05;;;;;;;29.61;51.20;94744.72;4937879;29;20732;-80
2022/06/25 09:45:04;;;;;;;13.60;6.05;;;;;;;29.70;50.36;94766.34;4938278;29;20238;-80
2022/06/25 09:47:29;;;;;;;11.27;6.28;;;;;;;29.44;50.45;94755.72;4938159;29;20597;-81
2022/06/25 09:50:18;;;;;;;16.95;6.18;;;;;;;29.53;56.19;94752.94;4937892;29;20174;-80
2022/06/25 09:53:01;;;;;;;14.98;6.78;;;;;;;29.68;55.13;94746.06;4928172;29;20676;-79
2022/06/25 09:55:30;;;;;;;10.65;5.82;;;;;;;29.55;51.98;94710.78;4924708;29;20179;-80
2022/06/25 09:57:55;;;;;;;15.93;5.97;;;;;;;29.74;52.43;94734.69;4921290;29;20238;-80
2022/06/25 10:00:23;;;;;;;14.73;5.78;;;;;;;29.90;52.87;94745.72;4920949;29;20180;-80
2022/06/25 10:02:50;;;;;;;11.20;5.78;;;;;;;30.04;52.86;94746.22;4927256;29;20182;-80
2022/06/25 10:05:26;;;;;;;11.40;5.20;;;;;;;29.88;52.32;94708.03;4922851;29;20192;-80
2022/06/25 10:08:00;;;;;;;10.93;6.13;;;;;;;30.02;50.41;94743.03;4929252;29;20640;-80
2022/06/25 10:10:30;;;;;;;11.88;5.93;;;;;;;30.06;51.66;94743.97;4917478;29;20293;-80
2022/06/25 10:12:56;;;;;;;9.88;5.38;;;;;;;29.83;52.09;94704.75;4926379;29;20218;-80
2022/06/25 10:15:23;;;;;;;16.38;5.93;;;;;;;29.80;52.85;94719.78;4920934;29;20274;-80
2022/06/25 10:17:51;;;;;;;9.77;5.50;;;;;;;30.06;51.91;94743.97;4931652;29;20234;-80
2022/06/25 10:20:18;;;;;;;11.95;6.50;;;;;;;29.94;53.11;94733.06;4928613;29;20186;-80
2022/06/25 10:22:46;;;;;;;10.52;4.75;;;;;;;30.05;51.01;94739.66;4930613;29;20186;-80
2022/06/25 10:25:14;;;;;;;14.65;5.57;;;;;;;29.76;51.96;94728.91;4934479;29;20179;-81
2022/06/25 10:27:47;;;;;;;12.85;5.10;;;;;;;29.84;52.47;94725.34;4934524;29;20190;-81
2022/06/25 10:30:15;;;;;;;7.68;5.50;;;;;;;29.97;53.18;94718.81;4916407;29;20187;-81
2022/06/25 10:32:49;;;;;;;12.13;5.72;;;;;;;29.66;50.90;94683.22;4935060;29;20210;-81
2022/06/25 10:35:32;;;;;;;26.83;5.95;;;;;;;29.88;52.75;94718.88;4934605;29;20218;-80
2022/06/25 10:38:03;;;;;;;16.80;5.80;;;;;;;29.98;51.58;94712.28;4934113;29;20183;-81
2022/06/25 10:40:30;;;;;;;13.02;5.55;;;;;;;29.80;51.69;94684.47;4931970;29;20618;-82
2022/06/25 10:42:59;;;;;;;14.07;5.95;;;;;;;29.99;53.26;94701.06;4933353;29;20175;-81
2022/06/25 10:45:24;;;;;;;27.67;6.85;;;;;;;30.05;51.73;94704.34;4933665;29;20183;-83
2022/06/25 10:47:52;;;;;;;10.50;5.45;;;;;;;29.95;52.40;94670.28;4915791;29;20210;-82
2022/06/25 10:50:21;;;;;;;16.30;5.35;;;;;;;30.21;53.32;94709.91;4935259;29;20183;-82
2022/06/25 10:53:02;;;;;;;15.10;5.32;;;;;;;30.20;52.28;94706.41;4935949;29;20278;-81
2022/06/25 10:55:34;;;;;;;14.95;5.10;;;;;;;30.01;50.45;94704.22;4919416;29;20178;-81
2022/06/25 10:58:25;;;;;;;19.67;5.38;;;;;;;29.91;51.74;94696.50;4935663;29;20270;-82
2022/06/25 11:00:52;;;;;;;23.98;5.68;;;;;;;29.95;53.13;94696.63;4918593;29;20948;-80
2022/06/25 11:03:37;;;;;;;13.07;5.68;;;;;;;30.04;55.53;94689.19;4929918;29;20175;-78
2022/06/25 11:06:19;;;;;;;10.40;5.25;;;;;;;30.18;51.67;94681.53;4929470;29;20250;-79
2022/06/25 11:08:46;;;;;;;11.20;5.35;;;;;;;30.30;49.87;94675.28;4933370;29;20187;-79
2022/06/25 11:11:12;;;;;;;13.38;4.95;;;;;;;30.37;49.88;94684.44;4928223;29;20174;-80
2022/06/25 11:13:42;;;;;;;9.55;5.70;;;;;;;30.19;51.32;94642.34;4935434;29;20221;-78
2022/06/25 11:16:18;;;;;;;10.45;5.15;;;;;;;30.51;49.96;94678.72;4934965;29;20262;-78
2022/06/25 11:18:53;;;;;;;16.98;5.65;;;;;;;30.67;49.56;94684.22;4932399;29;20262;-78
2022/06/25 11:21:35;;;;;;;9.18;5.53;;;;;;;30.69;49.82;94677.31;4930738;29;20184;-77
2022/06/25 11:24:12;;;;;;;17.73;5.65;;;;;;;30.46;48.22;94678.09;4932146;29;20179;-77
2022/06/25 11:29:29;;;;;;;15.20;5.80;;;;;;;30.19;51.14;94649.69;4925339;29;20202;-77
2022/06/25 11:31:56;;;;;;;19.83;6.63;;;;;;;29.98;51.00;94634.31;4932105;29;20195;-78
2022/06/25 11:34:24;;;;;;;15.75;5.38;;;;;;;30.11;52.18;94645.16;4933041;29;20199;-78
2022/06/25 11:37:04;;;;;;;14.98;6.18;;;;;;;30.26;52.94;94647.22;4933209;29;20203;-78